createdAt,value
2018-11-07T00:00:23.469Z,6.90
2018-11-07T00:02:51.683Z,10.30
2018-11-07T00:05:20.328Z,5.63
2018-11-07T00:07:49.183Z,6.87
2018-11-07T00:10:17.203Z,6.87
2018-11-07T00:12:45.407Z,9.20
2018-11-07T00:15:14.717Z,8.10
2018-11-07T00:17:43.287Z,6.03
2018-11-07T00:20:12.301Z,8.40
2018-11-07T00:22:40.600Z,5.83
2018-11-07T00:25:09.878Z,8.23
2018-11-07T00:27:38.112Z,5.93
2018-11-07T00:30:06.818Z,7.25
2018-11-07T00:32:34.834Z,6.60
2018-11-07T00:35:02.969Z,5.67
2018-11-07T00:37:32.106Z,8.33
2018-11-07T00:40:00.193Z,6.50
2018-11-07T00:42:28.688Z,8.20
2018-11-07T00:44:56.733Z,9.55
2018-11-07T00:47:24.934Z,5.93
2018-11-07T00:49:53.002Z,6.57
2018-11-07T00:52:21.093Z,6.63
2018-11-07T00:54:49.250Z,6.10
2018-11-07T00:57:17.382Z,5.80
2018-11-07T00:59:45.479Z,7.13
2018-11-07T01:02:13.594Z,5.37
2018-11-07T01:04:41.693Z,5.23
2018-11-07T01:07:09.767Z,6.08
2018-11-07T01:09:37.914Z,6.33
2018-11-07T01:12:05.985Z,6.30
2018-11-07T01:14:34.093Z,5.00
2018-11-07T01:17:02.198Z,6.30
2018-11-07T01:19:30.286Z,4.60
2018-11-07T01:21:58.351Z,4.67
2018-11-07T01:24:26.483Z,5.63
2018-11-07T01:26:55.341Z,7.20
2018-11-07T01:29:23.405Z,6.57
2018-11-07T01:31:51.481Z,5.77
2018-11-07T01:34:19.567Z,5.90
2018-11-07T01:36:47.648Z,7.40
2018-11-07T01:39:15.703Z,5.90
2018-11-07T01:41:43.833Z,5.57
2018-11-07T01:44:11.869Z,6.40
2018-11-07T01:46:40.070Z,4.93
2018-11-07T01:49:08.182Z,4.37
2018-11-07T01:51:36.236Z,6.00
2018-11-07T01:54:04.306Z,4.50
2018-11-07T01:56:32.368Z,5.17
2018-11-07T01:59:00.444Z,5.70
2018-11-07T02:01:28.628Z,4.67
2018-11-07T02:03:57.478Z,5.70
2018-11-07T02:06:25.546Z,6.60
2018-11-07T02:08:53.702Z,5.00
2018-11-07T02:11:21.793Z,7.93
2018-11-07T02:13:49.848Z,4.80
2018-11-07T02:16:18.023Z,5.37
2018-11-07T02:18:46.112Z,5.37
2018-11-07T02:21:14.194Z,4.83
2018-11-07T02:23:42.250Z,5.00
2018-11-07T02:26:10.448Z,4.30
2018-11-07T02:28:38.515Z,6.03
2018-11-07T02:31:06.666Z,4.70
2018-11-07T02:33:34.729Z,5.30
2018-11-07T02:36:02.890Z,8.27
2018-11-07T02:38:31.054Z,4.80
2018-11-07T02:40:59.154Z,5.40
2018-11-07T02:43:27.379Z,5.57
2018-11-07T02:45:55.482Z,5.23
2018-11-07T02:48:23.610Z,7.63
2018-11-07T02:50:51.705Z,5.60
2018-11-07T02:53:19.948Z,6.60
2018-11-07T02:55:47.989Z,9.33
2018-11-07T02:58:16.090Z,11.50
2018-11-07T03:00:44.289Z,8.83
2018-11-07T03:03:12.419Z,7.90
2018-11-07T03:05:40.523Z,4.30
2018-11-07T03:08:08.693Z,3.80
2018-11-07T03:10:36.957Z,5.22
2018-11-07T03:13:05.012Z,4.40
2018-11-07T03:15:33.225Z,4.27
2018-11-07T03:18:01.354Z,4.63
2018-11-07T03:20:29.455Z,5.53
2018-11-07T03:22:57.733Z,4.80
2018-11-07T03:25:25.886Z,4.60
2018-11-07T03:27:54.110Z,6.50
2018-11-07T03:30:22.229Z,4.20
2018-11-07T03:32:50.326Z,5.23
2018-11-07T03:35:23.662Z,4.60
2018-11-07T03:37:51.888Z,5.47
2018-11-07T03:40:19.981Z,5.23
2018-11-07T03:42:48.130Z,4.70
2018-11-07T03:45:16.217Z,5.20
2018-11-07T03:47:44.410Z,5.20
2018-11-07T03:50:12.630Z,5.00
2018-11-07T03:52:40.970Z,4.50
2018-11-07T03:55:09.121Z,4.83
2018-11-07T03:57:37.534Z,4.73
2018-11-07T04:00:07.381Z,4.45
2018-11-07T04:02:36.110Z,6.07
2018-11-07T04:05:04.697Z,4.73
2018-11-07T04:07:32.803Z,5.10
2018-11-07T04:10:00.889Z,5.10
2018-11-07T04:12:28.997Z,6.63
2018-11-07T04:14:57.129Z,5.13
2018-11-07T04:17:25.384Z,6.07
2018-11-07T04:19:53.477Z,4.40
2018-11-07T04:22:21.606Z,3.83
2018-11-07T04:24:49.730Z,4.67
2018-11-07T04:27:17.847Z,4.72
2018-11-07T04:29:45.927Z,4.30
2018-11-07T04:32:14.022Z,3.20
2018-11-07T04:34:42.218Z,5.40
2018-11-07T04:37:10.332Z,4.80
2018-11-07T04:39:38.430Z,5.00
2018-11-07T04:42:06.566Z,4.27
2018-11-07T04:44:34.666Z,4.67
2018-11-07T04:47:02.785Z,5.33
2018-11-07T04:49:30.880Z,4.70
2018-11-07T04:51:59.031Z,4.63
2018-11-07T04:54:27.124Z,3.93
2018-11-07T04:56:55.266Z,4.37
2018-11-07T04:59:23.455Z,6.90
2018-11-07T05:01:51.659Z,9.03
2018-11-07T05:04:19.846Z,5.57
2018-11-07T05:06:48.031Z,4.42
2018-11-07T05:09:16.332Z,4.65
2018-11-07T05:11:44.514Z,5.07
2018-11-07T05:14:12.645Z,4.77
2018-11-07T05:16:40.836Z,3.83
2018-11-07T05:19:08.982Z,8.00
2018-11-07T05:21:37.131Z,3.70
2018-11-07T05:24:05.664Z,5.07
2018-11-07T05:26:33.777Z,4.10
2018-11-07T05:29:01.879Z,7.20
2018-11-07T05:31:30.013Z,3.97
2018-11-07T05:33:58.249Z,6.73
2018-11-07T05:36:26.337Z,3.92
2018-11-07T05:38:54.455Z,4.00
2018-11-07T05:41:22.693Z,4.92
2018-11-07T05:43:50.779Z,4.03
2018-11-07T05:46:18.927Z,4.35
2018-11-07T05:48:47.076Z,4.37
2018-11-07T05:51:15.249Z,3.80
2018-11-07T05:53:43.370Z,3.50
2018-11-07T05:56:11.449Z,3.90
2018-11-07T05:58:39.546Z,8.20
2018-11-07T06:01:07.652Z,6.10
2018-11-07T06:03:35.760Z,3.43
2018-11-07T06:06:03.852Z,4.87
2018-11-07T06:08:31.995Z,7.67
2018-11-07T06:11:00.106Z,5.20
2018-11-07T06:13:28.219Z,4.37
2018-11-07T06:15:56.348Z,4.37
2018-11-07T06:18:24.442Z,4.28
2018-11-07T06:20:52.593Z,5.28
2018-11-07T06:23:20.695Z,5.90
2018-11-07T06:25:48.805Z,5.10
2018-11-07T06:28:16.988Z,3.57
2018-11-07T06:30:45.834Z,3.65
2018-11-07T06:33:14.113Z,8.00
2018-11-07T06:35:42.252Z,7.00
2018-11-07T06:38:10.418Z,11.73
2018-11-07T06:40:38.561Z,4.73
2018-11-07T06:43:06.672Z,6.70
2018-11-07T06:45:34.770Z,12.95
2018-11-07T06:48:02.899Z,5.30
2018-11-07T06:50:31.030Z,5.20
2018-11-07T06:52:59.197Z,3.65
2018-11-07T06:55:27.333Z,4.70
2018-11-07T06:57:55.500Z,3.50
2018-11-07T07:00:23.668Z,5.97
2018-11-07T07:02:51.765Z,5.30
2018-11-07T07:05:19.864Z,9.70
2018-11-07T07:07:48.241Z,7.47
2018-11-07T07:10:17.529Z,5.27
2018-11-07T07:12:45.614Z,2.93
2018-11-07T07:15:14.897Z,4.83
2018-11-07T07:17:43.017Z,4.77
2018-11-07T07:20:15.485Z,4.03
2018-11-07T07:22:44.131Z,6.77
2018-11-07T07:25:13.029Z,6.87
2018-11-07T07:27:41.801Z,3.47
2018-11-07T07:30:13.115Z,3.43
2018-11-07T07:32:42.041Z,4.47
2018-11-07T07:35:10.148Z,4.03
2018-11-07T07:37:38.278Z,3.57
2018-11-07T07:40:08.642Z,4.60
2018-11-07T07:42:36.982Z,5.97
2018-11-07T07:45:06.717Z,3.72
2018-11-07T07:47:34.827Z,3.23
2018-11-07T07:50:02.995Z,3.33
2018-11-07T07:52:31.058Z,4.00
2018-11-07T07:54:59.288Z,4.73
2018-11-07T07:57:27.438Z,8.60
2018-11-07T07:59:55.553Z,4.50
2018-11-07T08:02:23.695Z,3.53
2018-11-07T08:04:52.391Z,4.70
2018-11-07T08:07:20.562Z,4.50
2018-11-07T08:09:48.716Z,4.93
2018-11-07T08:12:16.831Z,7.23
2018-11-07T08:14:44.970Z,2.57
2018-11-07T08:17:13.129Z,3.63
2018-11-07T08:19:41.246Z,6.40
2018-11-07T08:22:09.333Z,2.93
2018-11-07T08:24:37.431Z,2.40
2018-11-07T08:27:05.639Z,2.83
2018-11-07T08:29:33.794Z,3.13
2018-11-07T08:32:01.951Z,3.07
2018-11-07T08:34:30.137Z,3.10
2018-11-07T08:36:58.242Z,5.10
2018-11-07T08:39:26.347Z,5.40
2018-11-07T08:41:54.450Z,4.00
2018-11-07T08:44:22.550Z,3.00
2018-11-07T08:46:50.646Z,4.80
2018-11-07T08:49:18.795Z,7.13
2018-11-07T08:51:46.930Z,2.37
2018-11-07T08:54:15.046Z,3.60
2018-11-07T08:56:43.162Z,3.30
2018-11-07T08:59:11.258Z,8.50
2018-11-07T09:01:39.392Z,2.83
2018-11-07T09:04:07.476Z,2.73
2018-11-07T09:06:35.614Z,3.47
2018-11-07T09:09:03.772Z,3.07
2018-11-07T09:11:31.901Z,4.70
2018-11-07T09:14:00.079Z,3.80
2018-11-07T09:16:28.285Z,3.10
2018-11-07T09:18:56.400Z,2.80
2018-11-07T09:21:24.505Z,3.07
2018-11-07T09:23:52.624Z,2.60
2018-11-07T09:26:21.496Z,3.10
2018-11-07T09:28:50.393Z,3.00
2018-11-07T09:31:18.487Z,2.70
2018-11-07T09:33:46.599Z,7.20
2018-11-07T09:36:14.705Z,3.10
2018-11-07T09:38:42.787Z,5.53
2018-11-07T09:41:10.889Z,7.87
2018-11-07T09:43:39.014Z,3.53
2018-11-07T09:46:07.154Z,3.07
2018-11-07T09:48:35.246Z,4.20
2018-11-07T09:51:03.344Z,4.17
2018-11-07T09:53:31.428Z,3.00
2018-11-07T09:58:06.964Z,2.40
2018-11-07T10:00:35.063Z,7.87
2018-11-07T10:03:03.225Z,3.53
2018-11-07T10:05:31.416Z,3.20
2018-11-07T10:07:59.468Z,3.70
2018-11-07T10:10:27.586Z,2.60
2018-11-07T10:12:55.684Z,4.33
2018-11-07T10:15:23.827Z,2.50
2018-11-07T10:17:51.930Z,2.30
2018-11-07T10:20:22.529Z,2.63
2018-11-07T10:22:50.890Z,2.90
2018-11-07T10:25:19.187Z,2.37
2018-11-07T10:27:47.532Z,5.85
2018-11-07T10:30:16.929Z,2.70
2018-11-07T10:32:45.850Z,2.23
2018-11-07T10:35:13.982Z,2.67
2018-11-07T10:37:42.133Z,2.30
2018-11-07T10:40:12.431Z,2.35
2018-11-07T10:42:40.571Z,3.50
2018-11-07T10:45:09.082Z,3.60
2018-11-07T10:47:37.204Z,2.70
2018-11-07T10:50:06.530Z,3.63
2018-11-07T10:52:34.615Z,2.30
2018-11-07T10:55:03.422Z,2.27
2018-11-07T10:57:31.664Z,3.97
2018-11-07T10:59:59.785Z,2.90
2018-11-07T11:02:33.230Z,3.73
2018-11-07T11:05:01.374Z,2.30
2018-11-07T11:07:29.550Z,2.87
2018-11-07T11:09:57.676Z,2.23
2018-11-07T11:12:25.801Z,2.30
2018-11-07T11:14:53.958Z,3.60
2018-11-07T11:17:22.091Z,3.33
2018-11-07T11:19:50.183Z,2.43
2018-11-07T11:22:18.291Z,2.83
2018-11-07T11:24:46.430Z,1.80
2018-11-07T11:27:14.565Z,1.70
2018-11-07T11:29:42.744Z,2.23
2018-11-07T11:32:10.893Z,2.43
2018-11-07T11:34:39.073Z,2.10
2018-11-07T11:37:07.201Z,2.90
2018-11-07T11:39:35.285Z,3.87
2018-11-07T11:42:03.493Z,2.83
2018-11-07T11:44:31.584Z,1.57
2018-11-07T11:46:59.687Z,2.00
2018-11-07T11:49:27.867Z,2.13
2018-11-07T11:51:55.966Z,1.70
2018-11-07T11:54:24.173Z,3.23
2018-11-07T11:56:52.282Z,3.63
2018-11-07T11:59:20.654Z,3.17
2018-11-07T12:01:48.489Z,2.80
2018-11-07T12:04:16.606Z,4.17
2018-11-07T12:06:44.689Z,2.27
2018-11-07T12:09:12.827Z,3.33
2018-11-07T12:11:41.002Z,2.60
2018-11-07T12:14:10.054Z,2.90
2018-11-07T12:16:38.179Z,3.00
2018-11-07T12:19:06.374Z,2.83
2018-11-07T12:21:34.462Z,3.43
2018-11-07T12:24:02.600Z,5.33
2018-11-07T12:26:30.754Z,2.73
2018-11-07T12:28:58.871Z,5.90
2018-11-07T12:31:26.959Z,6.73
2018-11-07T12:33:55.054Z,10.70
2018-11-07T12:36:23.209Z,3.65
2018-11-07T12:38:51.282Z,7.00
2018-11-07T12:41:19.380Z,8.30
2018-11-07T12:43:47.503Z,6.33
2018-11-07T12:46:15.594Z,9.07
2018-11-07T12:48:43.775Z,10.37
2018-11-07T12:51:12.914Z,7.12
2018-11-07T12:53:41.106Z,9.63
2018-11-07T12:56:09.202Z,6.03
2018-11-07T12:58:37.346Z,8.43
2018-11-07T13:01:05.629Z,10.70
2018-11-07T13:03:33.834Z,13.87
2018-11-07T13:06:01.946Z,11.13
2018-11-07T13:08:30.079Z,14.40
2018-11-07T13:10:58.177Z,10.47
2018-11-07T13:13:26.281Z,8.07
2018-11-07T13:15:54.375Z,4.90
2018-11-07T13:18:22.493Z,5.87
2018-11-07T13:20:50.606Z,9.20
2018-11-07T13:23:18.726Z,8.00
2018-11-07T13:25:46.825Z,7.50
2018-11-07T13:28:15.358Z,4.80
2018-11-07T13:30:43.439Z,7.63
2018-11-07T13:33:11.553Z,9.40
2018-11-07T13:35:39.784Z,4.70
2018-11-07T13:38:08.207Z,7.00
2018-11-07T13:40:36.131Z,6.43
2018-11-07T13:43:04.265Z,9.30
2018-11-07T13:45:32.447Z,7.70
2018-11-07T13:48:00.546Z,4.80
2018-11-07T13:50:28.633Z,5.57
2018-11-07T13:52:56.808Z,6.80
2018-11-07T13:55:24.886Z,8.30
2018-11-07T13:57:53.246Z,5.55
2018-11-07T14:00:22.447Z,10.97
2018-11-07T14:02:51.246Z,4.93
2018-11-07T14:05:19.410Z,6.50
2018-11-07T14:07:48.035Z,6.43
2018-11-07T14:10:21.282Z,7.00
2018-11-07T14:12:49.630Z,4.07
2018-11-07T14:15:18.660Z,5.30
2018-11-07T14:17:46.841Z,2.43
2018-11-07T14:20:14.969Z,4.07
2018-11-07T14:22:43.169Z,7.10
2018-11-07T14:25:11.823Z,5.80
2018-11-07T14:27:40.322Z,6.60
2018-11-07T14:30:11.270Z,11.97
2018-11-07T14:32:41.126Z,5.40
2018-11-07T14:35:09.215Z,4.90
2018-11-07T14:37:37.344Z,2.87
2018-11-07T14:40:05.831Z,3.70
2018-11-07T14:42:33.955Z,9.50
2018-11-07T14:45:02.063Z,4.22
2018-11-07T14:47:30.183Z,4.40
2018-11-07T14:49:58.285Z,3.13
2018-11-07T14:52:26.377Z,2.25
2018-11-07T14:54:54.458Z,4.50
2018-11-07T14:57:22.582Z,2.97
2018-11-07T15:04:54.282Z,3.57
2018-11-07T15:07:22.440Z,2.40
2018-11-07T15:09:50.665Z,14.33
2018-11-07T15:12:18.754Z,3.90
2018-11-07T15:14:46.862Z,7.30
2018-11-07T15:17:14.948Z,3.80
2018-11-07T15:19:43.070Z,2.33
2018-11-07T15:22:11.205Z,3.90
2018-11-07T15:24:39.330Z,2.90
2018-11-07T15:27:07.773Z,4.53
2018-11-07T15:29:35.905Z,3.30
2018-11-07T15:32:05.909Z,3.67
2018-11-07T15:34:34.010Z,2.05
2018-11-07T15:37:02.166Z,3.63
2018-11-07T15:39:30.268Z,2.10
2018-11-07T15:41:58.387Z,4.20
2018-11-07T15:44:26.612Z,3.40
2018-11-07T15:48:09.811Z,3.17
2018-11-07T15:50:43.377Z,3.57
2018-11-07T15:53:11.519Z,3.70
2018-11-07T15:55:39.649Z,2.42
2018-11-07T15:58:07.953Z,3.00
2018-11-07T16:00:36.059Z,1.90
2018-11-07T16:03:04.562Z,1.70
2018-11-07T16:05:32.746Z,2.52
2018-11-07T16:08:05.749Z,1.67
2018-11-07T16:10:33.950Z,3.23
2018-11-07T16:13:02.145Z,2.20
2018-11-07T16:15:31.400Z,2.40
2018-11-07T16:17:59.569Z,5.37
2018-11-07T16:20:27.776Z,2.70
2018-11-07T16:22:55.956Z,3.10
2018-11-07T16:25:24.010Z,2.77
2018-11-07T16:27:52.077Z,3.07
2018-11-07T16:30:20.801Z,3.93
2018-11-07T16:32:48.918Z,33.60
2018-11-07T16:35:17.089Z,367.13
2018-11-07T16:37:44.467Z,491.10
2018-11-07T16:40:12.888Z,526.20
2018-11-07T16:42:41.903Z,543.13
2018-11-07T16:45:09.836Z,469.02
2018-11-07T16:47:38.021Z,572.13
2018-11-07T16:50:07.135Z,594.08
2018-11-07T16:52:35.295Z,541.23
2018-11-07T16:55:03.390Z,500.38
2018-11-07T16:57:31.568Z,643.73
2018-11-07T17:00:00.206Z,914.10
2018-11-07T17:02:28.339Z,769.53
2018-11-07T17:04:56.527Z,809.57
2018-11-07T17:07:24.690Z,798.60
2018-11-07T17:09:52.819Z,771.07
2018-11-07T17:12:20.961Z,724.97
2018-11-07T17:14:49.081Z,649.97
2018-11-07T17:17:17.250Z,620.00
2018-11-07T17:19:45.526Z,619.53
2018-11-07T17:22:13.637Z,587.60
2018-11-07T17:24:41.789Z,575.20
2018-11-07T17:27:09.864Z,568.77
2018-11-07T17:29:37.964Z,569.20
2018-11-07T17:32:06.121Z,588.92
2018-11-07T17:34:34.359Z,558.53
2018-11-07T17:37:02.597Z,548.70
2018-11-07T17:39:30.700Z,538.23
2018-11-07T17:41:58.816Z,527.83
2018-11-07T17:44:26.946Z,510.50
2018-11-07T17:46:55.066Z,497.47
2018-11-07T17:49:23.192Z,484.40
2018-11-07T17:51:51.370Z,483.00
2018-11-07T17:54:19.513Z,465.90
2018-11-07T17:56:47.661Z,469.13
2018-11-07T17:59:15.815Z,445.73
2018-11-07T18:01:43.944Z,429.90
2018-11-07T18:04:12.541Z,423.57
2018-11-07T18:06:40.684Z,434.80
2018-11-07T18:09:09.295Z,411.80
2018-11-07T18:11:37.666Z,393.20
2018-11-07T18:14:06.257Z,399.30
2018-11-07T18:16:34.974Z,380.80
2018-11-07T18:19:03.266Z,376.90
2018-11-07T18:21:31.328Z,354.17
2018-11-07T18:23:59.541Z,353.47
2018-11-07T18:26:27.721Z,348.77
2018-11-07T18:28:55.824Z,349.07
2018-11-07T18:31:23.986Z,320.60
2018-11-07T18:33:52.098Z,351.80
2018-11-07T18:36:20.243Z,315.20
2018-11-07T18:38:48.448Z,330.30
2018-11-07T18:41:16.551Z,329.02
2018-11-07T18:43:45.150Z,334.57
2018-11-07T18:46:13.288Z,319.02
2018-11-07T18:48:41.483Z,321.75
2018-11-07T18:51:09.635Z,310.70
2018-11-07T18:53:37.817Z,327.27
2018-11-07T18:56:06.114Z,310.77
2018-11-07T18:58:34.373Z,317.20
2018-11-07T19:01:02.474Z,313.90
2018-11-07T19:03:30.618Z,287.90
2018-11-07T19:05:58.754Z,305.00
2018-11-07T19:08:27.006Z,314.23
2018-11-07T19:10:55.178Z,320.12
2018-11-07T19:13:23.334Z,303.57
2018-11-07T19:15:51.521Z,291.97
2018-11-07T19:18:19.747Z,287.37
2018-11-07T19:20:47.901Z,287.13
2018-11-07T19:23:16.068Z,269.02
2018-11-07T19:25:44.284Z,264.07
2018-11-07T19:28:12.409Z,245.47
2018-11-07T19:30:40.639Z,251.37
2018-11-07T19:33:09.544Z,236.92
2018-11-07T19:35:37.726Z,236.07
2018-11-07T19:38:05.837Z,220.77
2018-11-07T19:40:33.938Z,213.03
2018-11-07T19:43:02.167Z,229.10
2018-11-07T19:45:30.306Z,209.70
2018-11-07T19:47:58.445Z,193.70
2018-11-07T19:50:26.562Z,193.03
2018-11-07T19:52:54.697Z,198.70
2018-11-07T19:55:24.161Z,194.65
2018-11-07T19:58:00.725Z,194.93
2018-11-07T20:00:28.877Z,202.47
2018-11-07T20:02:57.071Z,180.10
2018-11-07T20:05:25.342Z,174.93
2018-11-07T20:07:53.516Z,165.75
2018-11-07T20:10:22.252Z,170.35
2018-11-07T20:12:50.367Z,166.75
2018-11-07T20:15:19.461Z,165.67
2018-11-07T20:17:47.979Z,155.17
2018-11-07T20:20:16.269Z,159.17
2018-11-07T20:22:44.545Z,151.13
2018-11-07T20:25:14.217Z,148.97
2018-11-07T20:27:43.302Z,161.30
2018-11-07T20:30:13.149Z,159.97
2018-11-07T20:32:41.549Z,157.63
2018-11-07T20:35:12.209Z,150.17
2018-11-07T20:37:40.396Z,146.00
2018-11-07T20:40:10.585Z,150.00
2018-11-07T20:42:39.010Z,128.63
2018-11-07T20:45:07.891Z,144.13
2018-11-07T20:47:36.200Z,144.90
2018-11-07T20:50:05.011Z,140.53
2018-11-07T20:52:33.248Z,136.10
2018-11-07T20:55:01.496Z,138.20
2018-11-07T20:57:29.612Z,130.57
2018-11-07T20:59:57.900Z,131.60
2018-11-07T21:02:26.118Z,129.50
2018-11-07T21:04:54.288Z,123.38
2018-11-07T21:07:22.478Z,127.53
2018-11-07T21:09:50.671Z,132.27
2018-11-07T21:12:18.871Z,125.73
2018-11-07T21:14:47.049Z,120.33
2018-11-07T21:17:15.861Z,119.77
2018-11-07T21:19:44.047Z,112.70
2018-11-07T21:22:12.862Z,107.00
2018-11-07T21:24:40.972Z,108.17
2018-11-07T21:27:09.292Z,110.07
2018-11-07T21:29:37.436Z,112.53
2018-11-07T21:32:06.306Z,109.03
2018-11-07T21:34:34.661Z,114.90
2018-11-07T21:37:02.927Z,103.40
2018-11-07T21:39:33.230Z,101.63
2018-11-07T21:42:02.100Z,98.40
2018-11-07T21:44:30.281Z,103.43
2018-11-07T21:46:58.419Z,93.67
2018-11-07T21:49:26.643Z,99.80
2018-11-07T21:51:54.810Z,100.63
2018-11-07T21:54:24.312Z,93.25
2018-11-07T21:56:52.481Z,108.87
2018-11-07T21:59:20.673Z,95.67
2018-11-07T22:01:48.835Z,94.23
2018-11-07T22:04:17.012Z,101.37
2018-11-07T22:06:45.147Z,97.87
2018-11-07T22:09:13.338Z,98.20
2018-11-07T22:11:41.482Z,94.90
2018-11-07T22:14:09.698Z,96.77
2018-11-07T22:16:38.597Z,91.43
2018-11-07T22:19:07.372Z,85.13
2018-11-07T22:21:35.777Z,88.80
2018-11-07T22:24:04.205Z,87.00
2018-11-07T22:26:32.294Z,76.00
2018-11-07T22:29:00.472Z,81.60
2018-11-07T22:31:28.687Z,84.30
2018-11-07T22:33:56.789Z,84.77
2018-11-07T22:36:24.933Z,79.93
2018-11-07T22:38:53.083Z,84.57
2018-11-07T22:41:21.202Z,84.90
2018-11-07T22:43:49.339Z,73.60
2018-11-07T22:46:17.521Z,83.77
2018-11-07T22:48:45.654Z,75.07
2018-11-07T22:51:13.789Z,74.47
2018-11-07T22:53:41.972Z,69.83
2018-11-07T22:56:10.203Z,75.00
2018-11-07T22:58:38.329Z,79.13
2018-11-07T23:01:16.659Z,75.50
2018-11-07T23:03:45.796Z,74.30
2018-11-07T23:06:13.844Z,72.53
2018-11-07T23:08:41.981Z,73.30
2018-11-07T23:11:10.125Z,66.20
2018-11-07T23:13:38.339Z,64.97
2018-11-07T23:16:06.466Z,67.47
2018-11-07T23:18:34.643Z,61.58
2018-11-07T23:21:02.790Z,66.00
2018-11-07T23:23:30.925Z,68.47
2018-11-07T23:25:59.101Z,67.13
2018-11-07T23:28:27.224Z,64.40
2018-11-07T23:30:55.370Z,60.53
2018-11-07T23:33:24.518Z,63.33
2018-11-07T23:35:52.638Z,63.37
2018-11-07T23:38:20.830Z,65.90
2018-11-07T23:40:49.009Z,62.60
2018-11-07T23:43:17.120Z,66.07
2018-11-07T23:45:45.298Z,62.20
2018-11-07T23:48:13.451Z,63.20
2018-11-07T23:50:41.585Z,58.57
2018-11-07T23:53:09.704Z,61.67
2018-11-07T23:55:37.966Z,63.15
2018-11-07T23:58:06.081Z,58.23
